createdAt,value
2019-05-25T00:01:53.421Z,6.40
2019-05-25T00:04:43.066Z,6.50
2019-05-25T00:07:32.931Z,6.10
2019-05-25T00:10:23.489Z,6.17
2019-05-25T00:13:13.724Z,6.53
2019-05-25T00:16:03.586Z,6.50
2019-05-25T00:18:53.824Z,7.00
2019-05-25T00:21:43.883Z,7.23
2019-05-25T00:24:34.105Z,7.43
2019-05-25T00:27:24.136Z,7.10
2019-05-25T00:30:14.673Z,7.17
2019-05-25T00:33:04.860Z,7.33
2019-05-25T00:35:54.935Z,7.10
2019-05-25T00:38:45.169Z,6.90
2019-05-25T00:41:35.726Z,6.80
2019-05-25T00:44:25.570Z,7.23
2019-05-25T00:47:15.525Z,8.10
2019-05-25T00:50:06.285Z,7.70
2019-05-25T00:52:55.994Z,7.80
2019-05-25T00:55:45.736Z,6.70
2019-05-25T00:58:35.620Z,7.00
2019-05-25T01:01:24.948Z,7.40
2019-05-25T01:04:14.643Z,6.40
2019-05-25T01:07:04.874Z,6.73
2019-05-25T01:09:54.841Z,6.83
2019-05-25T01:12:44.792Z,6.90
2019-05-25T01:15:35.803Z,6.40
2019-05-25T01:18:25.866Z,6.70
2019-05-25T01:21:15.705Z,6.37
2019-05-25T01:24:05.822Z,6.97
2019-05-25T01:26:56.018Z,6.50
2019-05-25T01:29:45.849Z,6.60
2019-05-25T01:32:36.154Z,7.80
2019-05-25T01:35:25.785Z,8.30
2019-05-25T01:38:15.815Z,6.97
2019-05-25T01:41:06.059Z,6.40
2019-05-25T01:43:55.871Z,7.03
2019-05-25T01:46:45.946Z,7.10
2019-05-25T01:49:35.497Z,7.23
2019-05-25T01:52:25.685Z,6.83
2019-05-25T01:55:16.073Z,6.43
2019-05-25T01:58:06.546Z,6.83
2019-05-25T02:00:55.893Z,5.87
2019-05-25T02:03:46.014Z,6.40
2019-05-25T02:06:35.615Z,6.50
2019-05-25T02:09:25.497Z,6.67
2019-05-25T02:12:15.404Z,7.10
2019-05-25T02:15:06.607Z,7.03
2019-05-25T02:17:56.431Z,6.57
2019-05-25T02:20:46.332Z,6.53
2019-05-25T02:23:36.549Z,6.70
2019-05-25T02:26:26.535Z,6.73
2019-05-25T02:29:16.635Z,7.07
2019-05-25T02:32:07.153Z,5.87
2019-05-25T02:34:57.207Z,6.53
2019-05-25T02:37:47.829Z,7.10
2019-05-25T02:40:37.692Z,7.10
2019-05-25T02:43:27.993Z,8.10
2019-05-25T02:46:18.314Z,7.20
2019-05-25T02:49:08.282Z,7.50
2019-05-25T02:51:58.147Z,7.07
2019-05-25T02:54:48.122Z,7.57
2019-05-25T02:57:37.960Z,7.90
2019-05-25T03:00:35.666Z,8.30
2019-05-25T03:03:26.802Z,8.13
2019-05-25T03:06:20.447Z,7.73
2019-05-25T03:09:10.666Z,8.20
2019-05-25T03:12:01.670Z,7.80
2019-05-25T03:14:51.482Z,7.80
2019-05-25T03:17:41.158Z,8.40
2019-05-25T03:20:31.764Z,8.60
2019-05-25T03:23:21.658Z,8.73
2019-05-25T03:26:11.182Z,8.10
2019-05-25T03:29:00.882Z,9.60
2019-05-25T03:31:50.931Z,9.70
2019-05-25T03:34:41.232Z,8.90
2019-05-25T03:37:31.036Z,9.70
2019-05-25T03:40:21.181Z,9.03
2019-05-25T03:43:11.095Z,8.50
2019-05-25T03:46:01.449Z,10.27
2019-05-25T03:48:51.514Z,9.70
2019-05-25T03:51:42.706Z,9.87
2019-05-25T03:54:32.908Z,8.97
2019-05-25T03:57:23.208Z,8.60
2019-05-25T04:00:15.032Z,9.03
2019-05-25T04:03:06.005Z,7.33
2019-05-25T04:05:56.193Z,8.07
2019-05-25T04:08:46.237Z,7.30
2019-05-25T04:11:35.987Z,6.30
2019-05-25T04:14:25.522Z,6.87
2019-05-25T04:17:15.337Z,6.63
2019-05-25T04:20:06.098Z,6.70
2019-05-25T04:22:56.000Z,5.83
2019-05-25T04:25:46.370Z,7.80
2019-05-25T04:28:37.386Z,7.07
2019-05-25T04:31:27.469Z,5.73
2019-05-25T04:34:17.188Z,5.60
2019-05-25T04:37:07.302Z,6.00
2019-05-25T04:39:57.444Z,5.80
2019-05-25T04:42:47.558Z,5.37
2019-05-25T04:45:37.621Z,5.70
2019-05-25T04:48:27.275Z,5.00
2019-05-25T04:51:17.076Z,5.70
2019-05-25T04:54:07.241Z,6.00
2019-05-25T04:56:57.211Z,5.57
2019-05-25T04:59:47.073Z,5.20
2019-05-25T05:02:36.909Z,5.17
2019-05-25T05:05:26.892Z,5.13
2019-05-25T05:08:16.814Z,5.07
2019-05-25T05:11:07.220Z,4.57
2019-05-25T05:13:57.378Z,4.23
2019-05-25T05:16:47.464Z,4.17
2019-05-25T05:19:37.279Z,3.57
2019-05-25T05:22:27.222Z,4.30
2019-05-25T05:25:16.637Z,4.37
2019-05-25T05:28:06.210Z,3.70
2019-05-25T05:30:56.229Z,4.03
2019-05-25T05:33:45.949Z,3.57
2019-05-25T05:36:37.794Z,3.67
2019-05-25T05:39:29.188Z,3.77
2019-05-25T05:42:24.260Z,3.20
2019-05-25T05:45:15.655Z,3.43
2019-05-25T05:48:06.100Z,4.70
2019-05-25T05:50:59.594Z,3.67
2019-05-25T05:53:55.933Z,3.13
2019-05-25T05:56:45.662Z,3.30
2019-05-25T05:59:35.813Z,3.70
2019-05-25T06:02:25.632Z,3.97
2019-05-25T06:05:15.536Z,3.70
2019-05-25T06:08:05.646Z,3.43
2019-05-25T06:10:55.508Z,3.53
2019-05-25T06:13:45.535Z,3.07
2019-05-25T06:16:35.270Z,3.70
2019-05-25T06:19:25.182Z,2.93
2019-05-25T06:22:14.979Z,4.07
2019-05-25T06:25:05.670Z,3.03
2019-05-25T06:27:55.670Z,3.00
2019-05-25T06:30:45.783Z,2.80
2019-05-25T06:33:36.012Z,3.10
2019-05-25T06:36:25.876Z,3.07
2019-05-25T06:39:15.969Z,3.23
2019-05-25T06:42:05.979Z,2.63
2019-05-25T06:44:55.825Z,4.20
2019-05-25T06:47:45.641Z,3.30
2019-05-25T06:50:35.994Z,2.70
2019-05-25T06:53:25.724Z,3.43
2019-05-25T06:56:15.775Z,3.20
2019-05-25T06:59:06.075Z,3.20
2019-05-25T07:01:56.035Z,2.70
2019-05-25T07:04:46.109Z,2.80
2019-05-25T07:07:36.052Z,2.13
2019-05-25T07:10:26.219Z,3.10
2019-05-25T07:13:16.108Z,3.07
2019-05-25T07:16:06.279Z,3.07
2019-05-25T07:18:56.498Z,2.50
2019-05-25T07:21:46.669Z,2.80
2019-05-25T07:24:38.187Z,3.07
2019-05-25T07:27:27.879Z,2.90
2019-05-25T07:30:18.380Z,3.03
2019-05-25T07:33:08.160Z,3.37
2019-05-25T07:35:58.996Z,3.10
2019-05-25T07:38:49.198Z,3.40
2019-05-25T07:41:39.394Z,3.50
2019-05-25T07:44:29.114Z,3.37
2019-05-25T07:47:19.303Z,2.50
2019-05-25T07:50:10.548Z,3.03
2019-05-25T07:53:00.280Z,2.40
2019-05-25T07:55:50.259Z,2.77
2019-05-25T07:58:40.330Z,3.30
2019-05-25T08:01:29.970Z,3.20
2019-05-25T08:04:19.840Z,4.80
2019-05-25T08:07:09.608Z,2.90
2019-05-25T08:09:59.364Z,3.10
2019-05-25T08:12:50.140Z,2.87
2019-05-25T08:15:40.293Z,2.03
2019-05-25T08:18:30.018Z,2.60
2019-05-25T08:21:19.671Z,2.70
2019-05-25T08:24:09.823Z,2.70
2019-05-25T08:26:59.882Z,2.50
2019-05-25T08:29:49.744Z,2.47
2019-05-25T08:32:39.540Z,2.50
2019-05-25T08:35:29.453Z,2.30
2019-05-25T08:38:19.456Z,4.00
2019-05-25T08:41:09.327Z,3.70
2019-05-25T08:43:59.113Z,2.83
2019-05-25T08:46:49.017Z,3.00
2019-05-25T08:49:39.292Z,2.00
2019-05-25T08:52:29.058Z,3.83
2019-05-25T08:55:29.686Z,2.30
2019-05-25T08:58:19.497Z,2.80
2019-05-25T09:01:09.324Z,2.13
2019-05-25T09:03:59.071Z,2.90
2019-05-25T09:06:49.114Z,3.07
2019-05-25T09:09:39.168Z,2.73
2019-05-25T09:12:29.290Z,3.20
2019-05-25T09:15:20.341Z,3.17
2019-05-25T09:18:10.363Z,3.20
2019-05-25T09:21:00.291Z,3.40
2019-05-25T09:23:50.050Z,3.10
2019-05-25T09:26:39.981Z,3.00
2019-05-25T09:29:29.475Z,2.80
2019-05-25T09:32:19.639Z,3.80
2019-05-25T09:35:11.015Z,4.67
2019-05-25T09:38:00.605Z,3.47
2019-05-25T09:40:51.204Z,3.40
2019-05-25T09:43:41.328Z,4.87
2019-05-25T09:46:31.434Z,4.07
2019-05-25T09:49:20.800Z,3.77
2019-05-25T09:52:10.819Z,4.90
2019-05-25T09:55:01.239Z,4.93
2019-05-25T09:57:51.393Z,6.30
2019-05-25T10:00:41.134Z,5.43
2019-05-25T10:03:30.948Z,4.90
2019-05-25T10:06:21.303Z,5.03
2019-05-25T10:09:11.297Z,5.70
2019-05-25T10:12:01.376Z,5.97
2019-05-25T10:14:51.640Z,5.50
2019-05-25T10:17:41.630Z,9.60
2019-05-25T10:20:31.946Z,5.93
2019-05-25T10:23:22.164Z,7.67
2019-05-25T10:26:11.799Z,6.70
2019-05-25T10:29:01.673Z,9.27
2019-05-25T10:31:51.469Z,9.30
2019-05-25T10:34:41.461Z,8.50
2019-05-25T10:37:31.596Z,9.10
2019-05-25T10:40:21.707Z,9.97
2019-05-25T10:43:11.889Z,9.60
2019-05-25T10:46:01.751Z,11.07
2019-05-25T10:48:51.689Z,9.47
2019-05-25T10:51:41.646Z,10.63
2019-05-25T10:54:31.569Z,10.83
2019-05-25T10:57:22.017Z,11.00
2019-05-25T11:00:14.525Z,11.57
2019-05-25T11:03:04.316Z,10.57
2019-05-25T11:05:54.358Z,10.57
2019-05-25T11:08:45.737Z,10.33
2019-05-25T11:11:36.061Z,11.67
2019-05-25T11:14:25.990Z,11.50
2019-05-25T11:17:15.921Z,12.93
2019-05-25T11:20:06.573Z,10.10
2019-05-25T11:22:56.612Z,10.10
2019-05-25T11:25:46.635Z,11.93
2019-05-25T11:28:36.734Z,9.83
2019-05-25T11:31:26.238Z,12.20
2019-05-25T11:34:16.056Z,11.93
2019-05-25T11:37:06.063Z,10.97
2019-05-25T11:39:56.254Z,10.53
2019-05-25T11:42:45.920Z,11.17
2019-05-25T11:45:36.155Z,10.70
2019-05-25T11:48:25.898Z,9.80
2019-05-25T11:51:15.838Z,10.17
2019-05-25T11:54:05.966Z,11.10
2019-05-25T11:56:56.046Z,11.17
2019-05-25T11:59:45.907Z,12.27
2019-05-25T12:02:36.014Z,12.20
2019-05-25T12:05:25.952Z,11.70
2019-05-25T12:08:15.801Z,12.50
2019-05-25T12:11:05.599Z,12.70
2019-05-25T12:13:55.795Z,13.27
2019-05-25T12:16:45.639Z,12.47
2019-05-25T12:19:35.569Z,14.57
2019-05-25T12:22:25.845Z,14.27
2019-05-25T12:25:17.976Z,13.77
2019-05-25T12:28:08.133Z,14.93
2019-05-25T12:31:01.674Z,14.63
2019-05-25T12:33:51.896Z,15.80
2019-05-25T12:36:42.075Z,14.23
2019-05-25T12:39:32.045Z,14.60
2019-05-25T12:42:21.891Z,12.60
2019-05-25T12:45:13.054Z,13.43
2019-05-25T12:48:03.152Z,12.63
2019-05-25T12:50:53.550Z,13.07
2019-05-25T12:53:43.428Z,12.97
2019-05-25T12:56:32.992Z,13.13
2019-05-25T12:59:22.876Z,13.20
2019-05-25T13:02:12.807Z,11.73
2019-05-25T13:05:02.931Z,11.43
2019-05-25T13:07:53.276Z,11.00
2019-05-25T13:10:43.273Z,11.40
2019-05-25T13:13:33.519Z,9.90
2019-05-25T13:16:23.713Z,8.73
2019-05-25T13:19:13.983Z,9.50
2019-05-25T13:22:04.278Z,10.00
2019-05-25T13:24:54.740Z,9.17
2019-05-25T13:27:44.418Z,9.23
2019-05-25T13:30:34.234Z,9.03
2019-05-25T13:33:24.253Z,10.37
2019-05-25T13:36:14.522Z,8.90
2019-05-25T13:39:06.145Z,8.77
2019-05-25T13:41:56.758Z,7.73
2019-05-25T13:44:46.273Z,6.77
2019-05-25T13:47:36.414Z,6.10
2019-05-25T13:50:26.510Z,7.67
2019-05-25T13:53:16.482Z,7.37
2019-05-25T13:56:06.708Z,7.53
2019-05-25T13:58:56.561Z,6.80
2019-05-25T14:01:46.475Z,7.83
2019-05-25T14:04:36.765Z,6.80
2019-05-25T14:07:26.763Z,7.40
2019-05-25T14:10:16.938Z,6.93
2019-05-25T14:13:06.368Z,6.70
2019-05-25T14:16:06.655Z,6.60
2019-05-25T14:18:47.791Z,6.17
2019-05-25T14:21:37.792Z,7.50
2019-05-25T14:24:28.070Z,6.30
2019-05-25T14:27:19.482Z,6.47
2019-05-25T14:30:11.291Z,6.57
2019-05-25T14:33:01.982Z,7.10
2019-05-25T14:35:52.107Z,7.00
2019-05-25T14:38:41.671Z,6.40
2019-05-25T14:41:30.842Z,5.80
2019-05-25T14:44:20.815Z,5.70
2019-05-25T14:47:10.593Z,5.70
2019-05-25T14:50:00.794Z,6.30
2019-05-25T14:52:51.090Z,5.67
2019-05-25T14:55:41.283Z,6.07
2019-05-25T14:58:31.689Z,6.70
2019-05-25T15:01:21.211Z,5.50
2019-05-25T15:04:10.992Z,6.50
2019-05-25T15:07:01.414Z,6.50
2019-05-25T15:09:51.619Z,7.00
2019-05-25T15:12:41.697Z,6.33
2019-05-25T15:15:31.594Z,6.07
2019-05-25T15:18:21.841Z,6.10
2019-05-25T15:21:12.203Z,6.27
2019-05-25T15:24:02.675Z,5.90
2019-05-25T15:26:54.116Z,5.20
2019-05-25T15:29:43.972Z,6.27
2019-05-25T15:32:34.057Z,5.37
2019-05-25T15:35:24.171Z,6.80
2019-05-25T15:38:13.965Z,5.93
2019-05-25T15:41:04.387Z,6.80
2019-05-25T15:43:54.149Z,5.60
2019-05-25T15:46:43.982Z,6.10
2019-05-25T15:49:34.655Z,5.80
2019-05-25T15:52:24.895Z,9.60
2019-05-25T15:55:15.403Z,9.40
2019-05-25T15:58:05.601Z,6.30
2019-05-25T16:00:55.516Z,6.37
2019-05-25T16:03:45.549Z,6.60
2019-05-25T16:06:35.441Z,6.27
2019-05-25T16:09:25.244Z,7.50
2019-05-25T16:12:15.311Z,6.53
2019-05-25T16:15:06.101Z,6.30
2019-05-25T16:17:56.090Z,6.50
2019-05-25T16:20:45.886Z,7.20
2019-05-25T16:23:36.071Z,6.90
2019-05-25T16:26:26.464Z,8.00
2019-05-25T16:29:16.631Z,7.27
2019-05-25T16:32:07.912Z,5.70
2019-05-25T16:34:57.745Z,7.80
2019-05-25T16:37:47.741Z,9.20
2019-05-25T16:40:37.686Z,8.37
2019-05-25T16:43:27.498Z,9.03
2019-05-25T16:46:17.763Z,6.50
2019-05-25T16:49:09.563Z,6.53
2019-05-25T16:51:59.946Z,5.60
2019-05-25T16:54:49.323Z,6.10
2019-05-25T16:57:39.144Z,7.67
2019-05-25T17:00:31.219Z,8.23
2019-05-25T17:03:28.083Z,9.03
2019-05-25T17:06:12.509Z,10.23
2019-05-25T17:09:02.878Z,14.60
2019-05-25T17:11:53.420Z,39.73
2019-05-25T17:14:43.669Z,14.00
2019-05-25T17:17:33.342Z,15.47
2019-05-25T17:20:24.503Z,15.23
2019-05-25T17:23:14.570Z,7.50
2019-05-25T17:26:05.775Z,5.17
2019-05-25T17:28:55.849Z,7.40
2019-05-25T17:31:46.100Z,8.37
2019-05-25T17:34:36.146Z,4.97
2019-05-25T17:37:27.112Z,5.90
2019-05-25T17:40:17.386Z,4.40
2019-05-25T17:43:07.327Z,5.40
2019-05-25T17:45:57.668Z,4.70
2019-05-25T17:48:47.605Z,4.90
2019-05-25T17:51:37.120Z,4.50
2019-05-25T17:54:27.049Z,4.77
2019-05-25T17:57:16.892Z,4.63
2019-05-25T18:00:08.123Z,4.10
2019-05-25T18:02:58.317Z,5.10
2019-05-25T18:05:48.772Z,4.90
2019-05-25T18:08:39.106Z,5.77
2019-05-25T18:11:28.821Z,4.90
2019-05-25T18:14:18.387Z,5.30
2019-05-25T18:17:07.678Z,5.57
2019-05-25T18:19:58.784Z,4.37
2019-05-25T18:22:48.960Z,4.60
2019-05-25T18:25:38.965Z,5.00
2019-05-25T18:28:32.089Z,5.10
2019-05-25T18:31:21.686Z,5.50
2019-05-25T18:34:22.107Z,7.23
2019-05-25T18:37:05.693Z,6.03
2019-05-25T18:39:56.960Z,5.27
2019-05-25T18:42:47.353Z,5.10
2019-05-25T18:45:37.001Z,4.90
2019-05-25T18:48:26.535Z,4.30
2019-05-25T18:51:16.321Z,5.33
2019-05-25T18:54:06.333Z,5.17
2019-05-25T18:56:56.294Z,4.67
2019-05-25T18:59:46.563Z,7.03
2019-05-25T19:02:36.467Z,4.87
2019-05-25T19:05:26.973Z,5.00
2019-05-25T19:08:17.301Z,5.23
2019-05-25T19:11:07.537Z,4.30
2019-05-25T19:13:57.601Z,4.10
2019-05-25T19:16:47.291Z,6.00
2019-05-25T19:19:37.106Z,4.17
2019-05-25T19:22:26.447Z,4.80
2019-05-25T19:25:16.289Z,5.57
2019-05-25T19:28:06.537Z,3.87
2019-05-25T19:30:56.479Z,4.77
2019-05-25T19:33:46.038Z,4.10
2019-05-25T19:36:36.015Z,4.70
2019-05-25T19:39:26.232Z,3.97
2019-05-25T19:42:15.311Z,3.97
2019-05-25T19:45:05.602Z,3.37
2019-05-25T19:47:55.525Z,3.73
2019-05-25T19:50:44.985Z,3.40
2019-05-25T19:53:35.072Z,3.87
2019-05-25T19:56:25.329Z,3.40
2019-05-25T19:59:14.787Z,2.90
2019-05-25T20:02:05.080Z,3.60
2019-05-25T20:04:55.000Z,2.67
2019-05-25T20:07:45.157Z,2.80
2019-05-25T20:10:35.053Z,2.80
2019-05-25T20:13:24.610Z,2.27
2019-05-25T20:16:14.718Z,2.57
2019-05-25T20:19:05.520Z,2.93
2019-05-25T20:21:55.267Z,2.80
2019-05-25T20:24:45.417Z,3.53
2019-05-25T20:27:35.373Z,3.07
2019-05-25T20:30:25.015Z,3.37
2019-05-25T20:33:27.157Z,2.50
2019-05-25T20:36:07.432Z,2.63
2019-05-25T20:38:57.892Z,2.77
2019-05-25T20:41:47.835Z,3.30
2019-05-25T20:44:38.119Z,3.10
2019-05-25T20:47:27.969Z,3.10
2019-05-25T20:50:18.362Z,2.37
2019-05-25T20:53:08.311Z,2.70
2019-05-25T20:55:58.002Z,2.77
2019-05-25T20:58:47.984Z,3.57
2019-05-25T21:01:38.037Z,2.70
2019-05-25T21:04:27.828Z,2.80
2019-05-25T21:07:18.033Z,2.53
2019-05-25T21:10:08.399Z,2.37
2019-05-25T21:12:58.654Z,2.30
2019-05-25T21:15:48.713Z,2.63
2019-05-25T21:18:39.853Z,3.00
2019-05-25T21:21:29.927Z,2.90
2019-05-25T21:24:20.182Z,2.67
2019-05-25T21:27:10.220Z,2.50
2019-05-25T21:30:00.386Z,2.60
2019-05-25T21:32:50.415Z,3.20
2019-05-25T21:35:40.595Z,3.00
2019-05-25T21:38:30.803Z,2.93
2019-05-25T21:41:21.306Z,3.07
2019-05-25T21:44:11.085Z,3.40
2019-05-25T21:47:01.416Z,4.23
2019-05-25T21:49:51.215Z,5.37
2019-05-25T21:52:41.121Z,3.57
2019-05-25T21:55:30.971Z,3.83
2019-05-25T21:58:21.035Z,4.03
2019-05-25T22:01:12.194Z,8.60
2019-05-25T22:04:03.513Z,4.87
2019-05-25T22:06:54.480Z,9.13
2019-05-25T22:09:44.515Z,7.10
2019-05-25T22:12:34.566Z,5.10
2019-05-25T22:15:24.335Z,5.53
2019-05-25T22:18:14.039Z,5.57
2019-05-25T22:21:04.211Z,4.97
2019-05-25T22:23:53.735Z,5.33
2019-05-25T22:26:43.210Z,5.13
2019-05-25T22:29:33.533Z,5.20
2019-05-25T22:32:23.761Z,4.77
2019-05-25T22:35:13.641Z,5.23
2019-05-25T22:38:03.350Z,3.97
2019-05-25T22:40:52.891Z,5.17
2019-05-25T22:43:42.213Z,4.40
2019-05-25T22:46:32.420Z,5.43
2019-05-25T22:49:22.847Z,4.80
2019-05-25T22:52:12.810Z,4.87
2019-05-25T22:55:02.709Z,4.20
2019-05-25T22:57:52.718Z,4.67
2019-05-25T23:00:42.572Z,4.03
2019-05-25T23:03:32.765Z,4.40
2019-05-25T23:06:24.366Z,4.43
2019-05-25T23:09:13.906Z,4.73
2019-05-25T23:12:03.927Z,4.50
2019-05-25T23:14:54.186Z,5.33
2019-05-25T23:17:43.475Z,4.40
2019-05-25T23:20:36.493Z,5.20
2019-05-25T23:23:25.644Z,5.50
2019-05-25T23:26:15.459Z,4.87
2019-05-25T23:29:05.994Z,4.80
2019-05-25T23:31:55.467Z,4.27
2019-05-25T23:34:45.158Z,4.70
2019-05-25T23:37:34.994Z,4.93
2019-05-25T23:40:24.875Z,5.33
2019-05-25T23:43:16.243Z,5.93
2019-05-25T23:46:06.124Z,5.00
2019-05-25T23:48:56.330Z,5.30
2019-05-25T23:51:46.200Z,5.00
2019-05-25T23:54:36.390Z,5.03
2019-05-25T23:57:26.505Z,5.83
